createdAt,value
2023-12-17T00:00:05.149Z,98.43
2023-12-17T00:02:32.067Z,98.52
2023-12-17T00:04:59.405Z,98.04
2023-12-17T00:07:26.212Z,100.00
2023-12-17T00:09:53.353Z,100.00
2023-12-17T00:12:20.324Z,99.70
2023-12-17T00:14:47.266Z,99.60
2023-12-17T00:17:14.657Z,99.42
2023-12-17T00:19:42.519Z,100.00
2023-12-17T00:22:09.889Z,100.00
2023-12-17T00:24:36.793Z,98.81
2023-12-17T00:27:04.882Z,98.37
2023-12-17T00:29:31.795Z,98.46
2023-12-17T00:32:01.146Z,98.47
2023-12-17T00:34:29.034Z,98.07
2023-12-17T00:36:56.031Z,98.10
2023-12-17T00:39:22.915Z,97.67
2023-12-17T00:42:06.694Z,97.33
2023-12-17T00:44:33.872Z,97.63
2023-12-17T00:47:01.096Z,97.16
2023-12-17T00:49:28.209Z,95.55
2023-12-17T00:51:55.099Z,98.14
2023-12-17T00:54:23.253Z,99.83
2023-12-17T00:56:50.235Z,99.53
2023-12-17T00:59:17.432Z,98.95
2023-12-17T01:01:44.585Z,99.14
2023-12-17T01:04:11.324Z,98.30
2023-12-17T01:06:38.182Z,97.82
2023-12-17T01:09:05.128Z,98.82
2023-12-17T01:11:33.245Z,98.83
2023-12-17T01:17:55.418Z,100.00
2023-12-17T01:20:22.305Z,100.00
2023-12-17T01:22:49.275Z,99.87
2023-12-17T01:25:16.189Z,99.67
2023-12-17T01:27:43.054Z,100.00
2023-12-17T01:30:14.890Z,100.00
2023-12-17T01:32:42.437Z,99.86
2023-12-17T01:35:09.240Z,99.89
2023-12-17T01:37:36.280Z,100.00
2023-12-17T01:40:03.354Z,100.00
2023-12-17T01:42:31.758Z,100.00
2023-12-17T01:44:58.989Z,99.32
2023-12-17T01:47:26.114Z,99.40
2023-12-17T01:49:53.131Z,99.87
2023-12-17T01:52:20.002Z,99.27
2023-12-17T01:54:48.349Z,98.68
2023-12-17T01:57:15.281Z,99.45
2023-12-17T01:59:42.063Z,99.61
2023-12-17T02:02:11.626Z,99.77
2023-12-17T02:04:39.486Z,100.00
2023-12-17T02:07:07.510Z,100.00
2023-12-17T02:09:34.349Z,100.00
2023-12-17T02:12:01.322Z,100.00
2023-12-17T02:14:28.543Z,100.00
2023-12-17T02:16:55.313Z,100.00
2023-12-17T02:19:22.365Z,100.00
2023-12-17T02:25:43.773Z,100.00
2023-12-17T02:28:10.636Z,100.00
2023-12-17T02:30:38.664Z,100.00
2023-12-17T02:36:59.624Z,100.00
2023-12-17T02:39:26.696Z,100.00
2023-12-17T02:41:53.561Z,99.55
2023-12-17T02:44:21.277Z,99.40
2023-12-17T02:46:49.277Z,99.13
2023-12-17T02:49:16.798Z,100.00
2023-12-17T02:51:44.434Z,99.17
2023-12-17T02:54:14.762Z,94.09
2023-12-17T02:56:42.127Z,93.43
2023-12-17T02:59:15.916Z,98.34
2023-12-17T03:01:44.570Z,100.00
2023-12-17T03:04:14.867Z,100.00
2023-12-17T03:06:44.465Z,100.00
2023-12-17T03:09:11.646Z,100.00
2023-12-17T03:11:39.903Z,100.00
2023-12-17T03:14:09.609Z,100.00
2023-12-17T03:16:36.461Z,100.00
2023-12-17T03:19:03.696Z,100.00
2023-12-17T03:21:41.308Z,100.00
2023-12-17T03:24:08.381Z,100.00
2023-12-17T03:26:40.503Z,100.00
2023-12-17T03:29:21.702Z,100.00
2023-12-17T03:31:48.754Z,100.00
2023-12-17T03:34:15.973Z,100.00
2023-12-17T03:36:42.776Z,100.00
2023-12-17T03:39:10.471Z,100.00
2023-12-17T03:41:37.445Z,100.00
2023-12-17T03:44:05.369Z,100.00
2023-12-17T03:46:32.198Z,100.00
2023-12-17T03:49:00.174Z,100.00
2023-12-17T03:51:27.434Z,100.00
2023-12-17T03:53:55.915Z,100.00
2023-12-17T03:56:22.724Z,100.00
2023-12-17T03:58:50.701Z,98.75
2023-12-17T04:01:17.909Z,100.00
2023-12-17T04:03:45.130Z,100.00
2023-12-17T04:06:13.689Z,100.00
2023-12-17T04:08:43.554Z,99.57
2023-12-17T04:11:10.788Z,95.35
2023-12-17T04:13:58.874Z,96.41
2023-12-17T04:17:03.340Z,95.05
2023-12-17T04:19:30.379Z,92.66
2023-12-17T04:21:58.874Z,94.33
2023-12-17T04:24:25.720Z,95.06
2023-12-17T04:26:52.631Z,91.90
2023-12-17T04:29:20.670Z,87.37
2023-12-17T04:31:48.383Z,84.28
2023-12-17T04:34:15.651Z,82.78
2023-12-17T04:36:43.877Z,88.78
2023-12-17T04:39:10.866Z,93.23
2023-12-17T04:41:38.150Z,92.35
2023-12-17T04:44:04.967Z,86.85
2023-12-17T04:46:31.750Z,85.06
2023-12-17T04:49:35.549Z,86.25
2023-12-17T04:52:02.538Z,90.17
2023-12-17T04:54:29.795Z,92.01
2023-12-17T04:56:56.709Z,87.25
2023-12-17T04:59:23.896Z,84.28
2023-12-17T05:01:51.859Z,81.57
2023-12-17T05:04:20.132Z,79.81
2023-12-17T05:06:48.095Z,79.78
2023-12-17T05:09:16.034Z,85.53
2023-12-17T05:11:43.208Z,83.94
2023-12-17T05:14:10.279Z,80.81
2023-12-17T05:16:37.163Z,79.14
2023-12-17T05:19:05.405Z,78.21
2023-12-17T05:21:32.450Z,82.85
2023-12-17T05:23:59.273Z,84.30
2023-12-17T05:26:26.196Z,85.54
2023-12-17T05:28:52.974Z,85.82
2023-12-17T05:31:20.820Z,86.16
2023-12-17T05:33:49.185Z,86.69
2023-12-17T05:36:17.578Z,84.14
2023-12-17T05:38:47.373Z,88.68
2023-12-17T05:41:14.952Z,89.88
2023-12-17T05:43:41.756Z,86.09
2023-12-17T05:46:08.995Z,82.94
2023-12-17T05:48:37.133Z,81.18
2023-12-17T05:51:08.319Z,83.73
2023-12-17T05:53:41.440Z,81.00
2023-12-17T05:56:14.310Z,81.43
2023-12-17T05:58:41.248Z,87.43
2023-12-17T06:01:10.323Z,88.83
2023-12-17T06:03:38.902Z,91.02
2023-12-17T06:06:07.866Z,92.64
2023-12-17T06:08:35.561Z,94.26
2023-12-17T06:11:02.418Z,94.97
2023-12-17T06:13:29.432Z,96.97
2023-12-17T06:15:56.433Z,97.98
2023-12-17T06:18:23.495Z,97.05
2023-12-17T06:20:50.396Z,97.05
2023-12-17T06:23:17.374Z,96.72
2023-12-17T06:25:45.484Z,93.42
2023-12-17T06:28:12.226Z,90.74
2023-12-17T06:30:40.569Z,88.01
2023-12-17T06:33:07.480Z,85.76
2023-12-17T06:35:34.420Z,85.42
2023-12-17T06:38:01.391Z,84.80
2023-12-17T06:40:29.467Z,81.72
2023-12-17T06:42:56.330Z,80.92
2023-12-17T06:45:24.389Z,83.43
2023-12-17T06:47:51.325Z,84.73
2023-12-17T06:50:18.283Z,84.88
2023-12-17T06:52:45.522Z,84.86
2023-12-17T06:55:12.336Z,84.41
2023-12-17T06:57:39.715Z,82.92
2023-12-17T07:00:09.249Z,81.50
2023-12-17T07:02:37.702Z,81.37
2023-12-17T07:05:04.839Z,85.88
2023-12-17T07:07:31.987Z,87.00
2023-12-17T07:09:59.843Z,85.22
2023-12-17T07:12:26.743Z,87.81
2023-12-17T07:14:53.798Z,90.86
2023-12-17T07:17:20.713Z,90.24
2023-12-17T07:23:41.043Z,85.80
2023-12-17T07:26:07.804Z,87.10
2023-12-17T07:28:35.005Z,89.84
2023-12-17T07:31:02.258Z,90.74
2023-12-17T07:33:29.256Z,92.59
2023-12-17T07:35:56.137Z,95.09
2023-12-17T07:38:22.955Z,93.16
2023-12-17T07:40:49.997Z,89.02
2023-12-17T07:43:17.128Z,87.15
2023-12-17T07:45:43.943Z,84.82
2023-12-17T07:48:10.971Z,84.78
2023-12-17T07:50:37.996Z,83.03
2023-12-17T07:53:04.887Z,82.80
2023-12-17T07:55:31.662Z,81.40
2023-12-17T07:57:58.515Z,82.78
2023-12-17T08:00:25.372Z,85.47
2023-12-17T08:02:52.663Z,83.00
2023-12-17T08:05:20.563Z,86.03
2023-12-17T08:07:47.454Z,88.83
2023-12-17T08:10:14.247Z,86.64
2023-12-17T08:12:41.598Z,85.92
2023-12-17T08:15:10.075Z,87.74
2023-12-17T08:17:39.056Z,87.09
2023-12-17T08:20:07.258Z,90.49
2023-12-17T08:22:34.054Z,90.96
2023-12-17T08:25:01.938Z,89.13
2023-12-17T08:27:28.906Z,88.34
2023-12-17T08:29:56.101Z,85.13
2023-12-17T08:32:23.393Z,86.57
2023-12-17T08:34:50.307Z,85.45
2023-12-17T08:37:18.444Z,83.98
2023-12-17T08:39:45.269Z,83.34
2023-12-17T08:42:12.449Z,84.16
2023-12-17T08:44:40.429Z,81.73
2023-12-17T08:47:07.392Z,84.09
2023-12-17T08:49:34.823Z,87.33
2023-12-17T08:52:01.841Z,85.78
2023-12-17T08:54:28.794Z,85.37
2023-12-17T08:56:55.653Z,83.81
2023-12-17T08:59:33.261Z,85.28
2023-12-17T09:02:03.071Z,86.38
2023-12-17T09:04:31.301Z,85.96
2023-12-17T09:06:59.640Z,82.39
2023-12-17T09:09:26.504Z,82.48
2023-12-17T09:12:20.181Z,84.09
2023-12-17T09:14:47.116Z,83.05
2023-12-17T09:17:13.958Z,83.32
2023-12-17T09:19:40.890Z,82.19
2023-12-17T09:22:10.026Z,80.32
2023-12-17T09:24:36.995Z,79.34
2023-12-17T09:27:03.934Z,81.70
2023-12-17T09:29:31.874Z,83.95
2023-12-17T09:32:00.524Z,85.23
2023-12-17T09:34:39.980Z,83.73
2023-12-17T09:37:07.907Z,82.00
2023-12-17T09:39:39.918Z,80.34
2023-12-17T09:42:27.169Z,78.51
2023-12-17T09:44:56.895Z,82.08
2023-12-17T09:47:25.460Z,83.87
2023-12-17T09:49:52.476Z,86.49
2023-12-17T09:52:19.935Z,86.36
2023-12-17T09:54:49.564Z,87.41
2023-12-17T09:57:18.062Z,85.30
2023-12-17T09:59:45.407Z,82.92
2023-12-17T10:02:15.772Z,80.80
2023-12-17T10:04:48.403Z,80.26
2023-12-17T10:07:19.534Z,78.81
2023-12-17T10:09:46.364Z,84.58
2023-12-17T10:12:15.532Z,85.28
2023-12-17T10:14:43.508Z,87.85
2023-12-17T10:17:12.744Z,89.23
2023-12-17T10:19:39.762Z,89.13
2023-12-17T10:22:07.380Z,87.22
2023-12-17T10:24:37.690Z,86.06
2023-12-17T10:27:19.046Z,84.75
2023-12-17T10:29:50.281Z,82.97
2023-12-17T10:32:20.636Z,84.95
2023-12-17T10:34:49.902Z,82.90
2023-12-17T10:37:21.569Z,88.34
2023-12-17T10:39:48.816Z,88.83
2023-12-17T10:42:20.255Z,88.46
2023-12-17T10:44:47.542Z,87.94
2023-12-17T10:47:16.462Z,86.96
2023-12-17T10:49:44.244Z,83.70
2023-12-17T10:52:11.036Z,82.74
2023-12-17T10:54:41.158Z,85.89
2023-12-17T10:57:10.450Z,84.68
2023-12-17T10:59:40.978Z,83.99
2023-12-17T11:02:08.865Z,84.93
2023-12-17T11:04:37.174Z,84.19
2023-12-17T11:07:04.074Z,82.13
2023-12-17T11:09:30.896Z,80.24
2023-12-17T11:11:57.890Z,84.22
2023-12-17T11:14:39.383Z,82.35
2023-12-17T11:17:15.086Z,89.33
2023-12-17T11:19:59.010Z,93.07
2023-12-17T11:22:25.991Z,91.40
2023-12-17T11:24:59.729Z,88.93
2023-12-17T11:27:26.952Z,87.01
2023-12-17T11:29:56.422Z,87.57
2023-12-17T11:32:35.112Z,84.87
2023-12-17T11:35:01.913Z,82.72
2023-12-17T11:37:29.372Z,81.87
2023-12-17T11:39:56.131Z,85.61
2023-12-17T11:42:23.023Z,88.47
2023-12-17T11:44:51.084Z,91.45
2023-12-17T11:47:25.189Z,89.19
2023-12-17T11:49:52.080Z,92.39
2023-12-17T11:52:18.871Z,90.60
2023-12-17T11:54:45.696Z,90.34
2023-12-17T11:57:30.754Z,95.29
2023-12-17T11:59:58.070Z,92.99
2023-12-17T12:02:25.828Z,92.90
2023-12-17T12:04:53.681Z,92.34
2023-12-17T12:07:21.574Z,91.38
2023-12-17T12:09:49.322Z,88.86
2023-12-17T12:12:25.139Z,84.78
2023-12-17T12:14:52.296Z,85.25
2023-12-17T12:17:37.373Z,82.46
2023-12-17T12:20:08.935Z,79.54
2023-12-17T12:22:45.366Z,79.75
2023-12-17T12:25:18.945Z,79.98
2023-12-17T12:28:23.534Z,80.84
2023-12-17T12:30:51.563Z,82.32
2023-12-17T12:33:18.902Z,79.01
2023-12-17T12:35:46.616Z,78.52
2023-12-17T12:38:23.701Z,79.53
2023-12-17T12:40:51.255Z,77.02
2023-12-17T12:43:18.318Z,77.17
2023-12-17T12:45:52.444Z,74.91
2023-12-17T12:48:26.121Z,77.88
2023-12-17T12:50:53.190Z,77.43
2023-12-17T12:53:26.041Z,78.00
2023-12-17T12:55:54.129Z,76.58
2023-12-17T12:58:21.067Z,76.37
2023-12-17T13:00:48.746Z,76.91
2023-12-17T13:03:16.453Z,76.87
2023-12-17T13:05:43.808Z,75.44
2023-12-17T13:08:10.777Z,76.61
2023-12-17T13:10:37.615Z,76.94
2023-12-17T13:13:06.194Z,75.95
2023-12-17T13:15:35.383Z,74.84
2023-12-17T13:18:04.537Z,77.53
2023-12-17T13:20:58.542Z,75.77
2023-12-17T13:23:25.817Z,84.30
2023-12-17T13:25:53.392Z,87.21
2023-12-17T13:28:21.096Z,83.21
2023-12-17T13:30:48.173Z,84.42
2023-12-17T13:33:17.970Z,85.66
2023-12-17T13:35:45.160Z,87.94
2023-12-17T13:38:12.879Z,85.01
2023-12-17T13:40:41.320Z,82.67
2023-12-17T13:43:08.221Z,80.36
2023-12-17T13:45:35.149Z,78.49
2023-12-17T13:48:01.989Z,77.44
2023-12-17T13:50:29.060Z,76.46
2023-12-17T13:52:56.108Z,76.07
2023-12-17T13:55:23.016Z,75.04
2023-12-17T13:57:50.056Z,74.69
2023-12-17T14:00:17.940Z,78.00
2023-12-17T14:02:44.923Z,76.79
2023-12-17T14:05:14.339Z,75.79
2023-12-17T14:07:42.092Z,76.53
2023-12-17T14:10:09.106Z,77.83
2023-12-17T14:12:36.165Z,75.77
2023-12-17T14:15:03.363Z,75.69
2023-12-17T14:17:30.272Z,79.45
2023-12-17T14:19:57.121Z,78.64
2023-12-17T14:22:24.268Z,78.46
2023-12-17T14:24:52.349Z,77.31
2023-12-17T14:27:19.832Z,82.50
2023-12-17T14:29:47.398Z,87.38
2023-12-17T14:32:17.371Z,87.99
2023-12-17T14:34:59.297Z,87.52
2023-12-17T14:37:26.109Z,84.46
2023-12-17T14:39:52.929Z,81.49
2023-12-17T14:42:19.997Z,82.71
2023-12-17T14:44:49.659Z,80.92
2023-12-17T14:47:16.893Z,79.11
2023-12-17T14:49:44.299Z,77.94
2023-12-17T14:52:12.359Z,76.34
2023-12-17T14:54:39.498Z,76.83
2023-12-17T14:57:06.499Z,77.41
2023-12-17T14:59:33.879Z,81.05
2023-12-17T15:02:00.855Z,80.94
2023-12-17T15:04:28.056Z,78.52
2023-12-17T15:06:55.308Z,78.24
2023-12-17T15:09:23.099Z,76.68
2023-12-17T15:11:50.593Z,81.39
2023-12-17T15:14:20.119Z,82.15
2023-12-17T15:16:48.626Z,82.08
2023-12-17T15:19:17.951Z,84.60
2023-12-17T15:21:53.814Z,85.90
2023-12-17T15:24:20.872Z,91.71
2023-12-17T15:27:30.194Z,96.03
2023-12-17T15:29:57.241Z,96.01
2023-12-17T15:32:24.465Z,97.19
2023-12-17T15:34:58.270Z,98.35
2023-12-17T15:37:25.641Z,100.00
2023-12-17T15:39:52.717Z,100.00
2023-12-17T15:42:19.579Z,99.05
2023-12-17T15:44:46.774Z,96.29
2023-12-17T15:47:13.652Z,95.09
2023-12-17T15:49:40.584Z,94.95
2023-12-17T15:52:09.020Z,91.43
2023-12-17T15:54:35.839Z,89.29
2023-12-17T15:57:02.968Z,89.03
2023-12-17T15:59:30.413Z,86.56
2023-12-17T16:02:01.550Z,83.49
2023-12-17T16:04:28.432Z,81.74
2023-12-17T16:06:55.264Z,83.27
2023-12-17T16:09:23.904Z,86.39
2023-12-17T16:11:53.759Z,89.17
2023-12-17T16:14:20.640Z,91.68
2023-12-17T16:16:48.621Z,89.96
2023-12-17T16:19:27.807Z,92.45
2023-12-17T16:21:55.549Z,90.82
2023-12-17T16:24:22.437Z,90.27
2023-12-17T16:26:50.630Z,88.30
2023-12-17T16:29:17.517Z,91.61
2023-12-17T16:31:46.364Z,95.09
2023-12-17T16:34:13.548Z,94.04
2023-12-17T16:36:41.690Z,95.49
2023-12-17T16:39:08.773Z,95.78
2023-12-17T16:41:36.252Z,96.54
2023-12-17T16:44:05.981Z,94.35
2023-12-17T16:46:33.136Z,91.26
2023-12-17T16:52:28.241Z,99.45
2023-12-17T16:54:56.125Z,100.00
2023-12-17T16:57:23.016Z,100.00
2023-12-17T16:59:49.963Z,100.00
2023-12-17T17:02:16.828Z,100.00
2023-12-17T17:04:44.065Z,100.00
2023-12-17T17:07:10.866Z,100.00
2023-12-17T17:09:38.226Z,100.00
2023-12-17T17:12:05.348Z,100.00
2023-12-17T17:14:32.216Z,96.55
2023-12-17T17:16:59.139Z,93.15
2023-12-17T17:19:26.004Z,90.69
2023-12-17T17:21:56.013Z,89.13
2023-12-17T17:24:22.946Z,87.62
2023-12-17T17:26:49.800Z,88.86
2023-12-17T17:29:16.939Z,88.10
2023-12-17T17:32:03.814Z,87.56
2023-12-17T17:34:49.920Z,86.37
2023-12-17T17:37:36.281Z,88.09
2023-12-17T17:40:04.901Z,88.46
2023-12-17T17:42:31.813Z,86.67
2023-12-17T17:44:58.660Z,85.90
2023-12-17T17:47:25.532Z,90.33
2023-12-17T17:49:52.403Z,95.17
2023-12-17T17:52:19.340Z,97.91
2023-12-17T17:54:49.782Z,100.00
2023-12-17T17:57:17.879Z,100.00
2023-12-17T17:59:45.095Z,100.00
2023-12-17T18:02:12.279Z,98.64
2023-12-17T18:04:39.482Z,94.78
2023-12-17T18:07:06.321Z,91.40
2023-12-17T18:09:34.079Z,91.42
2023-12-17T18:12:01.178Z,90.39
2023-12-17T18:14:28.005Z,87.33
2023-12-17T18:16:54.841Z,85.42
2023-12-17T18:19:21.742Z,86.03
2023-12-17T18:21:48.517Z,86.48
2023-12-17T18:24:15.365Z,90.33
2023-12-17T18:26:43.877Z,97.10
2023-12-17T18:29:11.217Z,100.00
2023-12-17T18:31:38.073Z,100.00
2023-12-17T18:34:04.956Z,100.00
2023-12-17T18:36:32.288Z,100.00
2023-12-17T18:38:59.154Z,100.00
2023-12-17T18:41:26.513Z,99.42
2023-12-17T18:43:53.269Z,100.00
2023-12-17T18:46:21.034Z,100.00
2023-12-17T18:48:48.954Z,100.00
2023-12-17T18:51:17.023Z,100.00
2023-12-17T18:53:44.104Z,97.52
2023-12-17T18:56:11.518Z,93.56
2023-12-17T18:58:38.689Z,94.04
2023-12-17T19:01:05.775Z,95.58
2023-12-17T19:03:32.712Z,93.51
2023-12-17T19:05:59.568Z,90.91
2023-12-17T19:08:26.347Z,88.33
2023-12-17T19:10:54.040Z,87.33
2023-12-17T19:13:21.213Z,85.61
2023-12-17T19:15:48.151Z,85.13
2023-12-17T19:18:16.549Z,86.33
2023-12-17T19:20:43.667Z,86.24
2023-12-17T19:23:10.957Z,87.18
2023-12-17T19:25:37.831Z,88.96
2023-12-17T19:28:04.960Z,89.72
2023-12-17T19:30:33.225Z,87.96
2023-12-17T19:33:00.259Z,85.66
2023-12-17T19:35:27.537Z,87.10
2023-12-17T19:37:54.657Z,86.57
2023-12-17T19:40:21.563Z,88.55
2023-12-17T19:42:48.415Z,89.01
2023-12-17T19:45:15.805Z,86.69
2023-12-17T19:47:42.774Z,85.01
2023-12-17T19:50:10.203Z,84.50
2023-12-17T19:52:38.115Z,83.76
2023-12-17T19:55:07.258Z,84.38
2023-12-17T19:57:34.120Z,83.86
2023-12-17T20:00:01.167Z,85.84
2023-12-17T20:02:28.075Z,87.65
2023-12-17T20:04:55.319Z,88.95
2023-12-17T20:07:22.227Z,88.17
2023-12-17T20:09:49.787Z,86.25
2023-12-17T20:12:16.703Z,89.49
2023-12-17T20:14:43.735Z,88.00
2023-12-17T20:17:10.508Z,89.12
2023-12-17T20:19:38.558Z,90.69
2023-12-17T20:22:05.514Z,88.88
2023-12-17T20:24:32.381Z,86.00
2023-12-17T20:26:59.328Z,85.22
2023-12-17T20:29:26.091Z,86.22
2023-12-17T20:32:11.591Z,89.25
2023-12-17T20:34:39.717Z,93.99
2023-12-17T20:37:06.563Z,93.35
2023-12-17T20:39:33.980Z,91.15
2023-12-17T20:42:00.822Z,97.67
2023-12-17T20:44:28.199Z,97.13
2023-12-17T20:46:55.497Z,93.51
2023-12-17T20:49:22.713Z,92.68
2023-12-17T20:51:49.594Z,93.41
2023-12-17T20:54:16.873Z,94.35
2023-12-17T20:56:43.916Z,95.39
2023-12-17T20:59:11.241Z,100.00
2023-12-17T21:01:38.060Z,100.00
2023-12-17T21:04:05.973Z,98.36
2023-12-17T21:06:32.889Z,93.01
2023-12-17T21:09:01.526Z,90.09
2023-12-17T21:11:29.401Z,88.40
2023-12-17T21:17:18.420Z,89.58
2023-12-17T21:19:46.732Z,89.59
2023-12-17T21:22:14.019Z,86.75
2023-12-17T21:24:41.039Z,88.24
2023-12-17T21:27:20.998Z,87.82
2023-12-17T21:29:48.078Z,85.98
2023-12-17T21:32:16.230Z,86.35
2023-12-17T21:34:44.119Z,85.21
2023-12-17T21:37:11.016Z,87.14
2023-12-17T21:39:38.160Z,85.68
2023-12-17T21:42:06.319Z,85.32
2023-12-17T21:44:33.486Z,83.15
2023-12-17T21:47:00.378Z,82.59
2023-12-17T21:49:28.111Z,91.34
2023-12-17T21:52:06.251Z,94.91
2023-12-17T21:54:34.608Z,97.81
2023-12-17T21:57:17.257Z,99.86
2023-12-17T21:59:46.957Z,100.00
2023-12-17T22:02:13.904Z,100.00
2023-12-17T22:04:46.737Z,100.00
2023-12-17T22:07:13.886Z,100.00
2023-12-17T22:09:40.889Z,100.00
2023-12-17T22:12:08.073Z,100.00
2023-12-17T22:14:35.301Z,100.00
2023-12-17T22:17:02.538Z,100.00
2023-12-17T22:19:29.877Z,100.00
2023-12-17T22:21:57.381Z,99.26
2023-12-17T22:24:24.314Z,97.98
2023-12-17T22:26:51.786Z,96.55
2023-12-17T22:29:19.719Z,100.00
2023-12-17T22:31:46.786Z,100.00
2023-12-17T22:34:13.845Z,100.00
2023-12-17T22:36:41.123Z,100.00
2023-12-17T22:39:09.194Z,100.00
2023-12-17T22:41:38.778Z,100.00
2023-12-17T22:44:08.405Z,100.00
2023-12-17T22:47:13.362Z,100.00
2023-12-17T22:49:40.488Z,98.68
2023-12-17T22:52:08.341Z,95.70
2023-12-17T22:54:35.965Z,92.16
2023-12-17T22:57:03.531Z,92.07
2023-12-17T22:59:33.968Z,95.44
2023-12-17T23:02:00.788Z,95.04
2023-12-17T23:04:28.781Z,93.88
2023-12-17T23:06:56.231Z,96.04
2023-12-17T23:09:23.630Z,94.24
2023-12-17T23:11:51.607Z,90.25
2023-12-17T23:14:18.722Z,89.34
2023-12-17T23:16:45.636Z,87.68
2023-12-17T23:19:13.136Z,85.89
2023-12-17T23:21:40.026Z,84.60
2023-12-17T23:24:10.015Z,85.78
2023-12-17T23:26:49.319Z,86.31
2023-12-17T23:29:16.343Z,85.54
2023-12-17T23:31:44.936Z,85.88
2023-12-17T23:34:12.151Z,91.25
2023-12-17T23:36:39.555Z,90.72
2023-12-17T23:39:06.443Z,93.77
2023-12-17T23:41:33.348Z,92.32
2023-12-17T23:44:00.202Z,90.98
2023-12-17T23:46:27.012Z,89.83
2023-12-17T23:48:54.924Z,88.38
2023-12-17T23:51:22.156Z,87.89
2023-12-17T23:53:48.975Z,93.93
2023-12-17T23:56:18.554Z,93.69
2023-12-17T23:58:45.837Z,92.04
